sensor_id;sensor_type;location;lat;lon;timestamp;pressure;altitude;pressure_sealevel;temperature;humidity
37856;BME280;23694;43.274;26.924;2023-06-22T00:00:53;99101.53;;;22.73;74.87
37856;BME280;23694;43.274;26.924;2023-06-22T00:03:21;99111.75;;;22.70;74.83
37856;BME280;23694;43.274;26.924;2023-06-22T00:05:48;99111.28;;;22.66;74.96
37856;BME280;23694;43.274;26.924;2023-06-22T00:08:15;99116.63;;;22.66;75.18
37856;BME280;23694;43.274;26.924;2023-06-22T00:10:42;99110.03;;;22.54;75.66
37856;BME280;23694;43.274;26.924;2023-06-22T00:13:09;99117.09;;;22.47;76.20
37856;BME280;23694;43.274;26.924;2023-06-22T00:15:36;99115.47;;;22.38;75.96
37856;BME280;23694;43.274;26.924;2023-06-22T00:18:02;99120.69;;;22.31;76.04
37856;BME280;23694;43.274;26.924;2023-06-22T00:20:29;99125.94;;;22.17;76.73
37856;BME280;23694;43.274;26.924;2023-06-22T00:22:57;99123.91;;;22.19;76.41
37856;BME280;23694;43.274;26.924;2023-06-22T00:25:23;99120.06;;;22.21;76.10
37856;BME280;23694;43.274;26.924;2023-06-22T00:27:49;99126.25;;;22.22;75.42
37856;BME280;23694;43.274;26.924;2023-06-22T00:30:16;99135.47;;;22.11;75.52
37856;BME280;23694;43.274;26.924;2023-06-22T00:32:43;99129.78;;;22.06;76.01
37856;BME280;23694;43.274;26.924;2023-06-22T00:35:11;99124.50;;;21.90;75.97
37856;BME280;23694;43.274;26.924;2023-06-22T00:37:38;99116.19;;;21.84;76.24
37856;BME280;23694;43.274;26.924;2023-06-22T00:40:09;99116.69;;;21.80;76.46
37856;BME280;23694;43.274;26.924;2023-06-22T00:42:40;99112.22;;;21.72;76.24
37856;BME280;23694;43.274;26.924;2023-06-22T00:45:07;99113.06;;;21.73;76.00
37856;BME280;23694;43.274;26.924;2023-06-22T00:47:37;99111.38;;;21.80;75.40
37856;BME280;23694;43.274;26.924;2023-06-22T00:50:06;99102.56;;;21.71;75.45
37856;BME280;23694;43.274;26.924;2023-06-22T00:52:35;99107.91;;;21.71;74.94
37856;BME280;23694;43.274;26.924;2023-06-22T00:55:02;99111.56;;;21.70;75.22
37856;BME280;23694;43.274;26.924;2023-06-22T00:57:28;99117.22;;;21.75;74.47
37856;BME280;23694;43.274;26.924;2023-06-22T00:59:55;99113.88;;;21.73;74.34
37856;BME280;23694;43.274;26.924;2023-06-22T01:02:21;99119.22;;;21.73;75.03
37856;BME280;23694;43.274;26.924;2023-06-22T01:04:47;99118.03;;;21.76;75.09
37856;BME280;23694;43.274;26.924;2023-06-22T01:07:23;99118.31;;;21.89;74.83
37856;BME280;23694;43.274;26.924;2023-06-22T01:10:27;99124.03;;;21.78;77.99
37856;BME280;23694;43.274;26.924;2023-06-22T01:15:53;99127.75;;;21.61;80.10
37856;BME280;23694;43.274;26.924;2023-06-22T01:18:23;99129.72;;;21.75;80.72
37856;BME280;23694;43.274;26.924;2023-06-22T01:20:54;99133.22;;;21.75;83.57
37856;BME280;23694;43.274;26.924;2023-06-22T01:28:59;99137.41;;;21.62;87.61
37856;BME280;23694;43.274;26.924;2023-06-22T01:31:27;99132.56;;;21.65;86.83
37856;BME280;23694;43.274;26.924;2023-06-22T01:33:59;99130.59;;;21.59;84.57
37856;BME280;23694;43.274;26.924;2023-06-22T01:36:26;99140.91;;;21.62;82.05
37856;BME280;23694;43.274;26.924;2023-06-22T01:38:53;99148.06;;;21.62;79.56
37856;BME280;23694;43.274;26.924;2023-06-22T01:41:20;99146.44;;;21.52;78.44
37856;BME280;23694;43.274;26.924;2023-06-22T01:43:48;99146.59;;;21.51;78.61
37856;BME280;23694;43.274;26.924;2023-06-22T01:46:15;99134.75;;;21.45;77.25
37856;BME280;23694;43.274;26.924;2023-06-22T01:48:41;99124.63;;;21.33;77.31
37856;BME280;23694;43.274;26.924;2023-06-22T01:51:07;99119.63;;;21.30;77.18
37856;BME280;23694;43.274;26.924;2023-06-22T01:53:33;99126.94;;;21.19;77.90
37856;BME280;23694;43.274;26.924;2023-06-22T01:55:59;99125.59;;;21.15;77.31
37856;BME280;23694;43.274;26.924;2023-06-22T01:58:29;99126.28;;;21.17;77.47
37856;BME280;23694;43.274;26.924;2023-06-22T02:01:10;99120.97;;;21.09;77.28
37856;BME280;23694;43.274;26.924;2023-06-22T02:04:08;99120.44;;;21.14;76.91
37856;BME280;23694;43.274;26.924;2023-06-22T02:06:39;99120.63;;;21.12;77.00
37856;BME280;23694;43.274;26.924;2023-06-22T02:09:09;99117.78;;;21.06;76.99
37856;BME280;23694;43.274;26.924;2023-06-22T02:11:40;99125.13;;;20.96;76.90
37856;BME280;23694;43.274;26.924;2023-06-22T02:14:07;99129.13;;;20.92;77.20
37856;BME280;23694;43.274;26.924;2023-06-22T02:16:34;99132.13;;;20.97;76.33
37856;BME280;23694;43.274;26.924;2023-06-22T02:19:01;99130.78;;;20.93;76.61
37856;BME280;23694;43.274;26.924;2023-06-22T02:21:32;99129.13;;;20.83;76.50
37856;BME280;23694;43.274;26.924;2023-06-22T02:23:58;99131.56;;;20.77;76.89
37856;BME280;23694;43.274;26.924;2023-06-22T02:26:25;99141.91;;;20.80;76.67
37856;BME280;23694;43.274;26.924;2023-06-22T02:28:52;99136.44;;;20.81;76.26
37856;BME280;23694;43.274;26.924;2023-06-22T02:31:18;99141.75;;;20.81;76.08
37856;BME280;23694;43.274;26.924;2023-06-22T02:33:44;99148.38;;;20.77;76.53
37856;BME280;23694;43.274;26.924;2023-06-22T02:36:11;99144.41;;;20.81;76.29
37856;BME280;23694;43.274;26.924;2023-06-22T02:38:41;99147.75;;;20.83;75.81
37856;BME280;23694;43.274;26.924;2023-06-22T02:41:11;99143.88;;;20.78;76.14
37856;BME280;23694;43.274;26.924;2023-06-22T02:43:38;99161.53;;;20.79;76.21
37856;BME280;23694;43.274;26.924;2023-06-22T02:46:05;99162.34;;;20.79;75.94
37856;BME280;23694;43.274;26.924;2023-06-22T02:48:31;99158.03;;;20.78;75.25
37856;BME280;23694;43.274;26.924;2023-06-22T02:50:57;99161.56;;;20.87;74.93
37856;BME280;23694;43.274;26.924;2023-06-22T02:53:23;99157.75;;;20.98;74.33
37856;BME280;23694;43.274;26.924;2023-06-22T02:55:49;99163.22;;;20.88;74.24
37856;BME280;23694;43.274;26.924;2023-06-22T02:58:15;99172.22;;;20.95;74.23
37856;BME280;23694;43.274;26.924;2023-06-22T03:00:42;99172.88;;;21.05;74.01
37856;BME280;23694;43.274;26.924;2023-06-22T03:03:08;99181.03;;;21.20;73.15
37856;BME280;23694;43.274;26.924;2023-06-22T03:05:34;99183.22;;;21.41;72.01
37856;BME280;23694;43.274;26.924;2023-06-22T03:08:00;99181.91;;;21.53;71.41
37856;BME280;23694;43.274;26.924;2023-06-22T03:10:27;99183.72;;;21.69;71.21
37856;BME280;23694;43.274;26.924;2023-06-22T03:12:53;99181.84;;;21.86;69.65
37856;BME280;23694;43.274;26.924;2023-06-22T03:15:19;99179.63;;;22.05;69.24
37856;BME280;23694;43.274;26.924;2023-06-22T03:17:45;99175.09;;;22.22;68.22
37856;BME280;23694;43.274;26.924;2023-06-22T03:20:12;99178.47;;;22.47;67.17
37856;BME280;23694;43.274;26.924;2023-06-22T03:22:39;99186.66;;;22.76;66.34
37856;BME280;23694;43.274;26.924;2023-06-22T03:25:06;99184.03;;;22.99;65.31
37856;BME280;23694;43.274;26.924;2023-06-22T03:27:37;99177.31;;;23.26;64.11
37856;BME280;23694;43.274;26.924;2023-06-22T03:30:03;99178.13;;;23.50;62.89
37856;BME280;23694;43.274;26.924;2023-06-22T03:32:30;99180.13;;;23.70;61.76
37856;BME280;23694;43.274;26.924;2023-06-22T03:34:56;99185.84;;;23.82;61.55
37856;BME280;23694;43.274;26.924;2023-06-22T03:37:27;99187.69;;;23.96;60.83
37856;BME280;23694;43.274;26.924;2023-06-22T03:39:54;99190.09;;;24.21;60.24
37856;BME280;23694;43.274;26.924;2023-06-22T03:42:20;99188.06;;;24.38;59.24
37856;BME280;23694;43.274;26.924;2023-06-22T03:44:46;99192.66;;;24.58;58.96
37856;BME280;23694;43.274;26.924;2023-06-22T03:47:13;99196.72;;;24.90;57.37
37856;BME280;23694;43.274;26.924;2023-06-22T03:49:39;99208.13;;;25.14;56.72
37856;BME280;23694;43.274;26.924;2023-06-22T03:52:05;99201.41;;;25.46;55.42
37856;BME280;23694;43.274;26.924;2023-06-22T03:54:31;99206.41;;;25.49;54.58
37856;BME280;23694;43.274;26.924;2023-06-22T03:56:58;99210.75;;;25.78;54.26
37856;BME280;23694;43.274;26.924;2023-06-22T03:59:24;99212.84;;;26.10;52.91
37856;BME280;23694;43.274;26.924;2023-06-22T04:01:51;99215.19;;;26.61;51.37
37856;BME280;23694;43.274;26.924;2023-06-22T04:04:17;99211.19;;;26.98;50.32
37856;BME280;23694;43.274;26.924;2023-06-22T04:06:44;99208.38;;;27.39;49.00
37856;BME280;23694;43.274;26.924;2023-06-22T04:09:10;99199.47;;;27.78;47.91
37856;BME280;23694;43.274;26.924;2023-06-22T04:11:36;99197.50;;;28.38;46.30
37856;BME280;23694;43.274;26.924;2023-06-22T04:14:02;99199.28;;;29.02;44.45
37856;BME280;23694;43.274;26.924;2023-06-22T04:16:28;99206.03;;;29.50;43.44
37856;BME280;23694;43.274;26.924;2023-06-22T04:18:54;99204.97;;;30.01;42.36
37856;BME280;23694;43.274;26.924;2023-06-22T04:21:20;99216.00;;;30.54;41.31
37856;BME280;23694;43.274;26.924;2023-06-22T04:23:47;99206.84;;;31.03;40.29
37856;BME280;23694;43.274;26.924;2023-06-22T04:26:13;99215.84;;;31.57;39.17
37856;BME280;23694;43.274;26.924;2023-06-22T04:28:40;99216.22;;;31.84;38.04
37856;BME280;23694;43.274;26.924;2023-06-22T04:31:06;99212.56;;;32.37;37.45
37856;BME280;23694;43.274;26.924;2023-06-22T04:33:33;99211.97;;;32.75;36.58
37856;BME280;23694;43.274;26.924;2023-06-22T04:35:59;99211.31;;;33.25;35.56
37856;BME280;23694;43.274;26.924;2023-06-22T04:38:27;99218.31;;;33.71;34.42
37856;BME280;23694;43.274;26.924;2023-06-22T04:40:55;99218.69;;;33.91;31.58
37856;BME280;23694;43.274;26.924;2023-06-22T04:43:21;99219.56;;;33.97;31.50
37856;BME280;23694;43.274;26.924;2023-06-22T04:45:47;99223.97;;;34.20;30.57
37856;BME280;23694;43.274;26.924;2023-06-22T04:48:18;99236.41;;;34.16;30.56
37856;BME280;23694;43.274;26.924;2023-06-22T04:50:44;99229.78;;;34.28;30.99
37856;BME280;23694;43.274;26.924;2023-06-22T04:53:10;99234.91;;;34.63;30.08
37856;BME280;23694;43.274;26.924;2023-06-22T04:55:39;99224.84;;;34.64;30.11
37856;BME280;23694;43.274;26.924;2023-06-22T04:58:07;99234.25;;;35.00;28.38
37856;BME280;23694;43.274;26.924;2023-06-22T05:00:33;99231.53;;;35.00;28.51
37856;BME280;23694;43.274;26.924;2023-06-22T05:03:02;99230.50;;;35.06;28.90
37856;BME280;23694;43.274;26.924;2023-06-22T05:05:29;99229.53;;;35.44;29.19
37856;BME280;23694;43.274;26.924;2023-06-22T05:07:56;99226.94;;;35.92;27.81
37856;BME280;23694;43.274;26.924;2023-06-22T05:10:26;99218.34;;;36.15;27.33
37856;BME280;23694;43.274;26.924;2023-06-22T05:12:52;99225.09;;;35.70;26.93
37856;BME280;23694;43.274;26.924;2023-06-22T05:15:18;99223.88;;;34.97;28.35
37856;BME280;23694;43.274;26.924;2023-06-22T05:17:52;99230.63;;;34.29;29.07
37856;BME280;23694;43.274;26.924;2023-06-22T05:20:18;99234.78;;;33.81;29.34
37856;BME280;23694;43.274;26.924;2023-06-22T05:22:44;99230.97;;;32.75;31.04
37856;BME280;23694;43.274;26.924;2023-06-22T05:25:11;99231.66;;;31.83;32.38
37856;BME280;23694;43.274;26.924;2023-06-22T05:27:37;99232.91;;;30.49;34.74
37856;BME280;23694;43.274;26.924;2023-06-22T05:30:08;99227.19;;;30.03;36.84
37856;BME280;23694;43.274;26.924;2023-06-22T05:32:35;99234.03;;;30.05;35.67
37856;BME280;23694;43.274;26.924;2023-06-22T05:35:02;99240.13;;;29.69;36.92
37856;BME280;23694;43.274;26.924;2023-06-22T05:37:29;99239.09;;;29.39;37.97
37856;BME280;23694;43.274;26.924;2023-06-22T05:39:55;99240.00;;;29.26;39.25
37856;BME280;23694;43.274;26.924;2023-06-22T05:42:23;99238.66;;;29.42;38.94
37856;BME280;23694;43.274;26.924;2023-06-22T05:44:52;99242.50;;;29.59;37.76
37856;BME280;23694;43.274;26.924;2023-06-22T05:47:19;99229.34;;;29.44;38.00
37856;BME280;23694;43.274;26.924;2023-06-22T05:49:45;99234.59;;;29.26;38.49
37856;BME280;23694;43.274;26.924;2023-06-22T05:52:11;99235.66;;;29.25;38.48
37856;BME280;23694;43.274;26.924;2023-06-22T05:54:37;99240.03;;;29.19;39.45
37856;BME280;23694;43.274;26.924;2023-06-22T05:57:04;99239.44;;;29.17;39.48
37856;BME280;23694;43.274;26.924;2023-06-22T05:59:30;99236.19;;;29.40;39.21
37856;BME280;23694;43.274;26.924;2023-06-22T06:01:56;99236.13;;;29.53;38.83
37856;BME280;23694;43.274;26.924;2023-06-22T06:04:22;99241.91;;;28.81;39.35
37856;BME280;23694;43.274;26.924;2023-06-22T06:06:48;99242.19;;;28.59;40.47
37856;BME280;23694;43.274;26.924;2023-06-22T06:09:14;99243.00;;;28.66;40.43
37856;BME280;23694;43.274;26.924;2023-06-22T06:11:41;99244.66;;;28.67;40.86
37856;BME280;23694;43.274;26.924;2023-06-22T06:14:08;99241.53;;;28.70;40.89
37856;BME280;23694;43.274;26.924;2023-06-22T06:16:34;99244.25;;;28.70;41.33
37856;BME280;23694;43.274;26.924;2023-06-22T06:19:00;99241.47;;;28.32;41.80
37856;BME280;23694;43.274;26.924;2023-06-22T06:21:26;99246.59;;;28.40;42.10
37856;BME280;23694;43.274;26.924;2023-06-22T06:23:52;99242.44;;;28.45;41.63
37856;BME280;23694;43.274;26.924;2023-06-22T06:26:21;99246.84;;;28.32;42.25
37856;BME280;23694;43.274;26.924;2023-06-22T06:28:56;99247.16;;;28.56;41.99
37856;BME280;23694;43.274;26.924;2023-06-22T06:31:22;99245.97;;;28.45;41.29
37856;BME280;23694;43.274;26.924;2023-06-22T06:33:49;99247.66;;;28.33;42.16
37856;BME280;23694;43.274;26.924;2023-06-22T06:36:15;99241.31;;;28.72;41.16
37856;BME280;23694;43.274;26.924;2023-06-22T06:38:42;99250.53;;;29.02;41.46
37856;BME280;23694;43.274;26.924;2023-06-22T06:41:08;99242.53;;;29.21;40.31
37856;BME280;23694;43.274;26.924;2023-06-22T06:43:34;99243.94;;;29.30;39.84
37856;BME280;23694;43.274;26.924;2023-06-22T06:46:00;99241.06;;;29.81;39.46
37856;BME280;23694;43.274;26.924;2023-06-22T06:48:26;99244.16;;;30.28;39.46
37856;BME280;23694;43.274;26.924;2023-06-22T06:50:52;99246.91;;;30.65;38.30
37856;BME280;23694;43.274;26.924;2023-06-22T06:53:18;99241.75;;;30.93;37.54
37856;BME280;23694;43.274;26.924;2023-06-22T06:55:47;99244.94;;;31.02;37.74
37856;BME280;23694;43.274;26.924;2023-06-22T06:58:13;99241.03;;;31.16;37.83
37856;BME280;23694;43.274;26.924;2023-06-22T07:00:40;99234.38;;;31.30;37.91
37856;BME280;23694;43.274;26.924;2023-06-22T07:03:06;99240.34;;;31.20;36.39
37856;BME280;23694;43.274;26.924;2023-06-22T07:05:32;99235.75;;;31.21;36.07
37856;BME280;23694;43.274;26.924;2023-06-22T07:08:02;99229.31;;;31.22;37.41
37856;BME280;23694;43.274;26.924;2023-06-22T07:10:28;99231.75;;;30.94;36.83
37856;BME280;23694;43.274;26.924;2023-06-22T07:12:54;99236.34;;;30.93;37.03
37856;BME280;23694;43.274;26.924;2023-06-22T07:15:21;99241.34;;;30.78;35.60
37856;BME280;23694;43.274;26.924;2023-06-22T07:17:47;99241.88;;;30.98;36.17
37856;BME280;23694;43.274;26.924;2023-06-22T07:20:13;99233.56;;;31.11;35.93
37856;BME280;23694;43.274;26.924;2023-06-22T07:22:40;99231.19;;;30.73;36.09
37856;BME280;23694;43.274;26.924;2023-06-22T07:25:07;99236.97;;;30.40;37.24
37856;BME280;23694;43.274;26.924;2023-06-22T07:27:44;99230.91;;;29.77;38.49
37856;BME280;23694;43.274;26.924;2023-06-22T07:30:11;99230.75;;;29.72;38.68
37856;BME280;23694;43.274;26.924;2023-06-22T07:32:38;99232.53;;;29.28;39.82
37856;BME280;23694;43.274;26.924;2023-06-22T07:35:04;99230.47;;;29.80;38.91
37856;BME280;23694;43.274;26.924;2023-06-22T07:37:30;99232.16;;;30.24;36.39
37856;BME280;23694;43.274;26.924;2023-06-22T07:39:58;99237.47;;;30.49;36.88
37856;BME280;23694;43.274;26.924;2023-06-22T07:42:25;99237.84;;;30.52;35.07
37856;BME280;23694;43.274;26.924;2023-06-22T07:44:51;99234.47;;;30.39;35.28
37856;BME280;23694;43.274;26.924;2023-06-22T07:47:17;99242.59;;;30.20;35.65
37856;BME280;23694;43.274;26.924;2023-06-22T07:49:50;99235.56;;;29.94;35.88
37856;BME280;23694;43.274;26.924;2023-06-22T07:52:17;99237.53;;;29.81;37.24
37856;BME280;23694;43.274;26.924;2023-06-22T07:54:43;99239.53;;;29.67;37.19
37856;BME280;23694;43.274;26.924;2023-06-22T07:57:09;99240.84;;;29.58;38.30
37856;BME280;23694;43.274;26.924;2023-06-22T07:59:36;99237.22;;;29.39;39.90
37856;BME280;23694;43.274;26.924;2023-06-22T08:02:02;99230.88;;;29.58;39.90
37856;BME280;23694;43.274;26.924;2023-06-22T08:04:29;99230.94;;;30.02;38.34
37856;BME280;23694;43.274;26.924;2023-06-22T08:06:56;99234.84;;;30.24;37.29
37856;BME280;23694;43.274;26.924;2023-06-22T08:09:22;99231.47;;;30.47;38.37
37856;BME280;23694;43.274;26.924;2023-06-22T08:11:48;99228.47;;;30.37;37.17
37856;BME280;23694;43.274;26.924;2023-06-22T08:14:14;99229.75;;;30.34;37.06
37856;BME280;23694;43.274;26.924;2023-06-22T08:16:41;99227.63;;;29.50;39.14
37856;BME280;23694;43.274;26.924;2023-06-22T08:19:08;99224.88;;;30.06;38.41
37856;BME280;23694;43.274;26.924;2023-06-22T08:21:34;99228.56;;;30.30;37.47
37856;BME280;23694;43.274;26.924;2023-06-22T08:24:00;99226.44;;;30.32;37.60
37856;BME280;23694;43.274;26.924;2023-06-22T08:26:26;99232.44;;;30.52;36.81
37856;BME280;23694;43.274;26.924;2023-06-22T08:28:52;99228.59;;;29.30;38.65
37856;BME280;23694;43.274;26.924;2023-06-22T08:31:18;99227.13;;;28.45;39.47
37856;BME280;23694;43.274;26.924;2023-06-22T08:33:44;99226.91;;;28.47;39.68
37856;BME280;23694;43.274;26.924;2023-06-22T08:36:11;99221.44;;;29.11;38.75
37856;BME280;23694;43.274;26.924;2023-06-22T08:38:39;99226.22;;;29.41;39.50
37856;BME280;23694;43.274;26.924;2023-06-22T08:41:05;99225.59;;;29.07;38.42
37856;BME280;23694;43.274;26.924;2023-06-22T08:43:31;99227.25;;;29.46;38.55
37856;BME280;23694;43.274;26.924;2023-06-22T08:45:57;99228.84;;;30.04;39.02
37856;BME280;23694;43.274;26.924;2023-06-22T08:48:23;99226.69;;;30.31;38.65
37856;BME280;23694;43.274;26.924;2023-06-22T08:50:49;99232.16;;;30.06;37.38
37856;BME280;23694;43.274;26.924;2023-06-22T08:53:15;99236.66;;;30.12;37.04
37856;BME280;23694;43.274;26.924;2023-06-22T08:55:41;99240.03;;;30.25;36.28
37856;BME280;23694;43.274;26.924;2023-06-22T08:58:07;99224.81;;;30.31;36.24
37856;BME280;23694;43.274;26.924;2023-06-22T09:00:33;99228.41;;;30.43;36.28
37856;BME280;23694;43.274;26.924;2023-06-22T09:03:00;99223.13;;;30.85;35.60
37856;BME280;23694;43.274;26.924;2023-06-22T09:05:26;99210.88;;;31.12;35.09
37856;BME280;23694;43.274;26.924;2023-06-22T09:07:52;99211.50;;;30.84;35.06
37856;BME280;23694;43.274;26.924;2023-06-22T09:10:20;99212.25;;;31.03;34.80
37856;BME280;23694;43.274;26.924;2023-06-22T09:12:46;99221.56;;;31.07;35.48
37856;BME280;23694;43.274;26.924;2023-06-22T09:15:12;99222.00;;;31.23;33.93
37856;BME280;23694;43.274;26.924;2023-06-22T09:17:39;99217.53;;;30.68;34.22
37856;BME280;23694;43.274;26.924;2023-06-22T09:20:06;99220.56;;;30.60;35.97
37856;BME280;23694;43.274;26.924;2023-06-22T09:22:34;99217.09;;;30.71;35.03
37856;BME280;23694;43.274;26.924;2023-06-22T09:25:00;99211.19;;;30.56;35.93
37856;BME280;23694;43.274;26.924;2023-06-22T09:27:26;99210.34;;;30.92;35.84
37856;BME280;23694;43.274;26.924;2023-06-22T09:29:52;99209.09;;;31.06;35.32
37856;BME280;23694;43.274;26.924;2023-06-22T09:32:18;99198.88;;;31.50;34.42
37856;BME280;23694;43.274;26.924;2023-06-22T09:34:44;99205.84;;;31.81;33.94
37856;BME280;23694;43.274;26.924;2023-06-22T09:37:10;99206.53;;;31.11;33.98
37856;BME280;23694;43.274;26.924;2023-06-22T09:39:36;99210.16;;;30.57;35.66
37856;BME280;23694;43.274;26.924;2023-06-22T09:42:03;99202.09;;;30.87;35.31
37856;BME280;23694;43.274;26.924;2023-06-22T09:44:29;99206.50;;;31.00;35.73
37856;BME280;23694;43.274;26.924;2023-06-22T09:46:55;99206.53;;;31.41;33.90
37856;BME280;23694;43.274;26.924;2023-06-22T09:49:21;99210.53;;;31.50;33.90
37856;BME280;23694;43.274;26.924;2023-06-22T09:51:50;99200.41;;;31.46;33.91
37856;BME280;23694;43.274;26.924;2023-06-22T09:54:16;99202.25;;;31.87;33.92
37856;BME280;23694;43.274;26.924;2023-06-22T09:56:45;99197.13;;;32.14;33.17
37856;BME280;23694;43.274;26.924;2023-06-22T09:59:11;99191.81;;;32.31;32.09
37856;BME280;23694;43.274;26.924;2023-06-22T10:01:37;99193.84;;;32.00;32.33
37856;BME280;23694;43.274;26.924;2023-06-22T10:04:03;99193.81;;;31.65;32.45
37856;BME280;23694;43.274;26.924;2023-06-22T10:06:32;99211.34;;;31.39;33.27
37856;BME280;23694;43.274;26.924;2023-06-22T10:08:58;99202.88;;;31.36;33.46
37856;BME280;23694;43.274;26.924;2023-06-22T10:11:24;99204.25;;;31.27;33.42
37856;BME280;23694;43.274;26.924;2023-06-22T10:13:55;99199.91;;;31.37;33.16
37856;BME280;23694;43.274;26.924;2023-06-22T10:16:21;99198.31;;;31.71;32.61
37856;BME280;23694;43.274;26.924;2023-06-22T10:18:47;99193.41;;;31.92;32.31
37856;BME280;23694;43.274;26.924;2023-06-22T10:21:13;99188.31;;;31.83;32.46
37856;BME280;23694;43.274;26.924;2023-06-22T10:23:39;99195.63;;;31.18;32.85
37856;BME280;23694;43.274;26.924;2023-06-22T10:26:05;99188.59;;;30.99;33.48
37856;BME280;23694;43.274;26.924;2023-06-22T10:28:31;99189.72;;;30.79;33.76
37856;BME280;23694;43.274;26.924;2023-06-22T10:31:00;99187.88;;;30.91;33.55
37856;BME280;23694;43.274;26.924;2023-06-22T10:33:26;99186.72;;;30.99;34.22
37856;BME280;23694;43.274;26.924;2023-06-22T10:35:52;99182.50;;;31.03;34.16
37856;BME280;23694;43.274;26.924;2023-06-22T10:38:18;99186.84;;;30.63;34.70
37856;BME280;23694;43.274;26.924;2023-06-22T10:40:44;99176.38;;;30.29;35.49
37856;BME280;23694;43.274;26.924;2023-06-22T10:43:10;99182.16;;;30.33;35.17
37856;BME280;23694;43.274;26.924;2023-06-22T10:45:36;99180.81;;;30.42;35.97
37856;BME280;23694;43.274;26.924;2023-06-22T10:48:03;99184.03;;;30.33;35.75
37856;BME280;23694;43.274;26.924;2023-06-22T10:50:29;99181.56;;;30.31;34.91
37856;BME280;23694;43.274;26.924;2023-06-22T10:52:55;99175.84;;;30.57;34.76
37856;BME280;23694;43.274;26.924;2023-06-22T10:55:21;99171.19;;;30.46;34.77
37856;BME280;23694;43.274;26.924;2023-06-22T10:57:47;99174.84;;;30.04;35.69
37856;BME280;23694;43.274;26.924;2023-06-22T11:00:14;99172.13;;;30.04;36.02
37856;BME280;23694;43.274;26.924;2023-06-22T11:02:41;99174.22;;;30.02;35.75
37856;BME280;23694;43.274;26.924;2023-06-22T11:05:07;99174.84;;;30.04;35.61
37856;BME280;23694;43.274;26.924;2023-06-22T11:07:33;99170.19;;;29.86;35.08
37856;BME280;23694;43.274;26.924;2023-06-22T11:09:59;99163.22;;;29.28;36.42
37856;BME280;23694;43.274;26.924;2023-06-22T11:12:25;99161.94;;;29.81;35.79
37856;BME280;23694;43.274;26.924;2023-06-22T11:14:51;99170.56;;;30.14;35.02
37856;BME280;23694;43.274;26.924;2023-06-22T11:17:18;99169.78;;;30.62;34.60
37856;BME280;23694;43.274;26.924;2023-06-22T11:19:44;99173.13;;;30.76;34.43
37856;BME280;23694;43.274;26.924;2023-06-22T11:22:10;99170.28;;;31.12;33.76
37856;BME280;23694;43.274;26.924;2023-06-22T11:24:36;99168.56;;;31.18;32.46
37856;BME280;23694;43.274;26.924;2023-06-22T11:27:02;99177.66;;;31.24;33.51
37856;BME280;23694;43.274;26.924;2023-06-22T11:29:29;99171.34;;;31.53;33.46
37856;BME280;23694;43.274;26.924;2023-06-22T11:31:55;99172.28;;;31.47;33.41
37856;BME280;23694;43.274;26.924;2023-06-22T11:34:21;99163.22;;;31.65;33.55
37856;BME280;23694;43.274;26.924;2023-06-22T11:36:47;99168.31;;;31.73;33.19
37856;BME280;23694;43.274;26.924;2023-06-22T11:39:14;99161.22;;;31.72;33.35
37856;BME280;23694;43.274;26.924;2023-06-22T11:41:40;99158.03;;;32.10;32.34
37856;BME280;23694;43.274;26.924;2023-06-22T11:44:07;99157.34;;;32.03;32.08
37856;BME280;23694;43.274;26.924;2023-06-22T11:46:33;99153.41;;;32.22;31.05
37856;BME280;23694;43.274;26.924;2023-06-22T11:49:01;99155.28;;;32.33;31.00
37856;BME280;23694;43.274;26.924;2023-06-22T11:51:27;99156.16;;;32.51;30.00
37856;BME280;23694;43.274;26.924;2023-06-22T11:53:53;99142.25;;;32.59;30.82
37856;BME280;23694;43.274;26.924;2023-06-22T11:56:19;99149.03;;;32.33;31.07
37856;BME280;23694;43.274;26.924;2023-06-22T11:58:45;99145.91;;;32.01;31.09
37856;BME280;23694;43.274;26.924;2023-06-22T12:01:11;99145.09;;;32.00;31.34
37856;BME280;23694;43.274;26.924;2023-06-22T12:03:41;99144.75;;;31.73;31.27
37856;BME280;23694;43.274;26.924;2023-06-22T12:06:09;99152.97;;;31.55;31.71
37856;BME280;23694;43.274;26.924;2023-06-22T12:08:35;99156.50;;;31.67;32.08
37856;BME280;23694;43.274;26.924;2023-06-22T12:11:01;99151.09;;;31.32;32.26
37856;BME280;23694;43.274;26.924;2023-06-22T12:13:27;99153.34;;;31.05;32.29
37856;BME280;23694;43.274;26.924;2023-06-22T12:15:56;99151.56;;;30.99;32.74
37856;BME280;23694;43.274;26.924;2023-06-22T12:18:22;99152.25;;;30.95;33.20
37856;BME280;23694;43.274;26.924;2023-06-22T12:20:48;99157.06;;;30.92;32.79
37856;BME280;23694;43.274;26.924;2023-06-22T12:23:14;99154.22;;;31.17;33.13
37856;BME280;23694;43.274;26.924;2023-06-22T12:25:41;99153.22;;;31.53;31.62
37856;BME280;23694;43.274;26.924;2023-06-22T12:28:07;99146.84;;;31.60;31.26
37856;BME280;23694;43.274;26.924;2023-06-22T12:30:33;99140.50;;;31.66;31.80
37856;BME280;23694;43.274;26.924;2023-06-22T12:32:59;99143.31;;;31.82;30.40
37856;BME280;23694;43.274;26.924;2023-06-22T12:35:25;99133.22;;;31.78;31.64
37856;BME280;23694;43.274;26.924;2023-06-22T12:37:51;99133.31;;;31.95;31.63
37856;BME280;23694;43.274;26.924;2023-06-22T12:40:18;99133.66;;;32.10;31.79
37856;BME280;23694;43.274;26.924;2023-06-22T12:42:45;99131.56;;;32.40;30.83
37856;BME280;23694;43.274;26.924;2023-06-22T12:45:11;99129.03;;;32.51;29.92
37856;BME280;23694;43.274;26.924;2023-06-22T12:47:37;99127.56;;;32.71;30.34
37856;BME280;23694;43.274;26.924;2023-06-22T12:50:04;99125.25;;;32.63;29.94
37856;BME280;23694;43.274;26.924;2023-06-22T12:52:31;99134.81;;;32.14;30.07
37856;BME280;23694;43.274;26.924;2023-06-22T12:54:58;99128.03;;;31.88;31.26
37856;BME280;23694;43.274;26.924;2023-06-22T12:57:24;99128.72;;;31.83;31.38